Time;durP1;ratioP1;P1;durP2;ratioP2;P2;SDS_P1;SDS_P2;PMS_P1;PMS_P2;Temp;Humidity;BMP_temperature;BMP_pressure;BME280_temperature;BME280_humidity;BME280_pressure;Samples;Min_cycle;Max_cycle;Signal;HPM_P1;HPM_P2
2021/10/22 00:02:40;;;;;;;11.90;9.80;;;;;;;22.44;47.92;100793.91;109963;1247;61290;-88
2021/10/22 00:06:26;;;;;;;;;;;;;;;;;;;;;
2021/10/22 00:09:32;;;;;;;11.80;9.50;;;;;;;22.43;48.03;100794.67;109982;1248;73198;-87
2021/10/22 00:12:50;;;;;;;11.40;9.70;;;;;;;22.44;47.93;100797.16;109966;1246;74041;-87
2021/10/22 00:16:37;;;;;;;11.30;9.80;;;;;;;22.43;47.99;100797.74;110079;1245;59384;-89
2021/10/22 00:19:36;;;;;;;10.60;9.40;;;;;;;22.43;48.09;100793.10;110182;1244;61349;-85
2021/10/22 00:22:54;;;;;;;;;;;;;;;;;;;;;
2021/10/22 00:26:03;;;;;;;10.30;9.10;;;;;;;22.41;47.98;100799.71;110344;1240;73955;-84
2021/10/22 00:29:58;;;;;;;;;;;;;;;;;;;;;
2021/10/22 00:33:14;;;;;;;;;;;;;;;;;;;;;
2021/10/22 00:36:14;;;;;;;;;;;;;;;;;;;;;
2021/10/22 00:39:40;;;;;;;10.60;9.30;;;;;;;22.38;47.97;100802.07;110820;1235;74325;-90
2021/10/22 00:42:26;;;;;;;12.20;10.00;;;;;;;22.39;47.95;100809.57;111131;1232;59431;-86
2021/10/22 00:45:53;;;;;;;;;;;;;;;;;;;;;
2021/10/22 00:49:21;;;;;;;11.30;9.80;;;;;;;22.38;47.97;100807.96;111303;1232;73638;-81
2021/10/22 00:52:38;;;;;;;;;;;;;;;;;;;;;
2021/10/22 00:56:16;;;;;;;;;;;;;;;;;;;;;
2021/10/22 00:59:12;;;;;;;;;;;;;;;;;;;;;
2021/10/22 01:02:31;;;;;;;;;;;;;;;;;;;;;
2021/10/22 01:05:47;;;;;;;;;;;;;;;;;;;;;
2021/10/22 01:09:12;;;;;;;;;;;;;;;;;;;;;
2021/10/22 01:12:30;;;;;;;12.70;9.30;;;;;;;22.37;48.12;100808.93;112041;1227;60282;-85
2021/10/22 01:15:39;;;;;;;;;;;;;;;;;;;;;
2021/10/22 01:18:52;;;;;;;10.80;9.70;;;;;;;22.37;47.93;100806.43;112134;1225;72856;-88
2021/10/22 01:22:29;;;;;;;;;;;;;;;;;;;;;
2021/10/22 01:25:51;;;;;;;11.80;9.80;;;;;;;22.37;48.26;100805.38;111173;1233;60220;-85
2021/10/22 01:29:16;;;;;;;;;;;;;;;;;;;;;
2021/10/22 01:32:26;;;;;;;;;;;;;;;;;;;;;
2021/10/22 01:35:53;;;;;;;12.00;9.80;;;;;;;22.36;48.28;100797.95;110964;1235;60681;-90
2021/10/22 01:39:21;;;;;;;11.20;9.90;;;;;;;22.36;48.15;100795.94;111031;1234;61146;-86
2021/10/22 01:42:51;;;;;;;12.60;10.20;;;;;;;22.36;48.02;100795.02;111086;1233;71677;-85
2021/10/22 01:46:00;;;;;;;12.90;10.80;;;;;;;22.36;48.13;100797.42;111257;1233;73745;-79
2021/10/22 01:49:08;;;;;;;;;;;;;;;;;;;;;
2021/10/22 01:52:25;;;;;;;11.10;9.90;;;;;;;22.36;48.01;100787.37;111077;1234;61092;-89
2021/10/22 01:55:37;;;;;;;11.00;9.70;;;;;;;22.35;48.17;100788.31;110592;1238;72499;-81
2021/10/22 01:59:14;;;;;;;;;;;;;;;;;;;;;
2021/10/22 02:02:37;;;;;;;11.60;10.40;;;;;;;22.35;48.19;100794.23;110415;1238;60081;-90
2021/10/22 02:06:11;;;;;;;;;;;;;;;;;;;;;
2021/10/22 02:09:31;;;;;;;;;;;;;;;;;;;;;
2021/10/22 02:16:44;;;;;;;;;;;;;;;;;;;;;
2021/10/22 02:20:32;;;;;;;;;;;;;;;;;;;;;
2021/10/22 02:24:09;;;;;;;;;;;;;;;;;;;;;
2021/10/22 02:28:18;;;;;;;;;;;;;;;;;;;;;
2021/10/22 02:31:27;;;;;;;;;;;;;;;;;;;;;
2021/10/22 02:42:12;;;;;;;11.40;10.00;;;;;;;22.32;48.46;100823.80;110353;1243;61259;-85
2021/10/22 02:45:11;;;;;;;13.70;10.80;;;;;;;22.32;48.24;100821.55;110550;1240;72785;-87
2021/10/22 02:48:41;;;;;;;11.70;10.20;;;;;;;22.31;48.18;100826.77;110386;1241;71910;-89
2021/10/22 02:52:18;;;;;;;;;;;;;;;;;;;;;
2021/10/22 02:55:28;;;;;;;;;;;;;;;;;;;;;
2021/10/22 03:02:52;;;;;;;;;;;;;;;;;;;;;
2021/10/22 03:10:15;;;;;;;;;;;;;;;;;;;;;
2021/10/22 03:14:03;;;;;;;;;;;;;;;;;;;;;
2021/10/22 03:24:52;;;;;;;11.20;10.00;;;;;;;22.28;48.40;100857.84;110133;1244;60588;-88
2021/10/22 03:27:51;;;;;;;;;;;;;;;;;;;;;
2021/10/22 03:31:17;;;;;;;;;;;;;;;;;;;;;
2021/10/22 03:38:34;;;;;;;;;;;;;;;;;;;;;
2021/10/22 03:45:26;;;;;;;;;;;;;;;;;;;;;
2021/10/22 03:48:35;;;;;;;12.00;10.20;;;;;;;22.27;48.46;100868.69;113014;1217;58979;-87
2021/10/22 03:52:14;;;;;;;;;;;;;;;;;;;;;
2021/10/22 03:55:57;;;;;;;12.00;9.80;;;;;;;22.26;48.48;100867.69;112899;1220;73266;-84
2021/10/22 03:59:20;;;;;;;11.80;10.50;;;;;;;22.25;48.40;100865.91;111963;1228;58985;-84
2021/10/22 04:02:38;;;;;;;;;;;;;;;;;;;;;
2021/10/22 04:06:39;;;;;;;11.60;10.40;;;;;;;22.25;48.56;100867.38;111346;1232;73853;-86
2021/10/22 04:09:50;;;;;;;;;;;;;;;;;;;;;
2021/10/22 04:13:17;;;;;;;12.40;10.60;;;;;;;22.24;48.49;100866.89;111124;1234;60276;-85
2021/10/22 04:16:53;;;;;;;12.80;10.50;;;;;;;22.24;48.53;100864.25;110614;1239;59950;-83
2021/10/22 04:20:40;;;;;;;12.20;10.90;;;;;;;22.23;48.34;100862.84;110536;1241;71177;-83
2021/10/22 04:24:06;;;;;;;13.00;11.60;;;;;;;22.23;48.56;100858.75;110238;1244;73403;-90
2021/10/22 04:27:14;;;;;;;;;;;;;;;;;;;;;
2021/10/22 04:30:25;;;;;;;14.10;12.60;;;;;;;22.22;48.25;100861.36;110029;1246;61051;-84
2021/10/22 04:33:51;;;;;;;15.80;12.30;;;;;;;22.21;48.07;100862.67;109849;1248;72520;-83
2021/10/22 04:37:20;;;;;;;;;;;;;;;;;;;;;
2021/10/22 04:40:37;;;;;;;20.20;15.50;;;;;;;22.18;47.57;100856.63;110261;1244;60638;-90
2021/10/22 04:44:13;;;;;;;;;;;;;;;;;;;;;
2021/10/22 04:47:39;;;;;;;19.40;14.60;;;;;;;22.16;47.33;100853.58;109979;1247;72430;-82
2021/10/22 04:50:44;;;;;;;;;;;;;;;;;;;;;
2021/10/22 04:57:23;;;;;;;17.00;14.00;;;;;;;22.13;46.59;100869.55;109887;1245;59433;-84
2021/10/22 05:01:00;;;;;;;;;;;;;;;;;;;;;
2021/10/22 05:04:34;;;;;;;19.60;15.30;;;;;;;22.12;46.21;100895.60;110127;1241;74089;-81
2021/10/22 05:07:44;;;;;;;19.50;14.80;;;;;;;22.12;46.16;100898.68;110208;1243;62073;-80
2021/10/22 05:11:10;;;;;;;19.70;15.90;;;;;;;22.12;46.06;100893.48;110503;1242;59641;-82
2021/10/22 05:14:30;;;;;;;22.80;15.80;;;;;;;22.12;45.81;100903.30;110329;1241;72585;-82
2021/10/22 05:21:12;;;;;;;;;;;;;;;;;;;;;
2021/10/22 05:24:40;;;;;;;19.00;15.70;;;;;;;22.13;45.72;100901.10;110108;1245;61580;-86
2021/10/22 05:31:27;;;;;;;22.10;16.80;;;;;;;22.24;45.12;100908.01;112814;1209;600815;-85
2021/10/22 05:34:39;;;;;;;21.40;16.60;;;;;;;22.25;44.77;100909.34;113052;1215;73076;-90
2021/10/22 05:38:04;;;;;;;20.20;16.30;;;;;;;22.30;44.50;100913.44;112995;1218;58808;-83
2021/10/22 05:41:10;;;;;;;20.30;16.00;;;;;;;22.36;44.26;100908.92;112868;1220;60589;-84
2021/10/22 05:44:42;;;;;;;18.90;14.80;;;;;;;22.40;44.14;100909.11;112782;1220;73648;-83
2021/10/22 05:47:05;;;;;;;18.90;15.30;;;;;;;22.45;43.90;100908.42;112355;1222;72208;-84
2021/10/22 05:50:23;;;;;;;20.40;15.20;;;;;;;22.50;43.71;100918.30;112061;1227;61385;-84
2021/10/22 05:53:12;;;;;;;18.20;15.20;;;;;;;22.54;43.47;100940.22;112052;1227;62399;-86
2021/10/22 05:56:34;;;;;;;21.80;15.30;;;;;;;22.58;43.25;100944.02;111425;1230;72298;-81
2021/10/22 05:59:33;;;;;;;20.70;14.60;;;;;;;22.62;43.24;100955.94;111683;1230;72055;-83
2021/10/22 06:02:42;;;;;;;18.40;15.60;;;;;;;22.66;43.09;100956.17;111008;1233;59554;-82
2021/10/22 06:05:52;;;;;;;;;;;;;;;;;;;;;
2021/10/22 06:09:08;;;;;;;20.40;14.50;;;;;;;22.72;42.77;100978.69;110982;1235;72596;-83
2021/10/22 06:11:57;;;;;;;16.90;14.00;;;;;;;22.75;42.58;100978.96;111125;1233;73951;-91
2021/10/22 06:15:13;;;;;;;;;;;;;;;;;;;;;
2021/10/22 06:22:05;;;;;;;;;;;;;;;;;;;;;
2021/10/22 06:24:56;;;;;;;19.50;14.60;;;;;;;22.84;42.43;100990.36;111751;1228;72915;-82
2021/10/22 06:28:13;;;;;;;;;;;;;;;;;;;;;
2021/10/22 06:31:38;;;;;;;;;;;;;;;;;;;;;
2021/10/22 06:34:54;;;;;;;15.80;13.70;;;;;;;22.88;42.12;100998.25;111177;1234;72395;-83
2021/10/22 06:38:09;;;;;;;;;;;;;;;;;;;;;
2021/10/22 06:41:10;;;;;;;;;;;;;;;;;;;;;
2021/10/22 06:44:18;;;;;;;;;;;;;;;22.89;41.95;101006.83;110917;1236;61649;-84
2021/10/22 06:47:24;;;;;;;18.10;13.80;;;;;;;22.86;41.94;101015.33;110550;1240;71319;-81
2021/10/22 06:50:30;;;;;;;;;;;;;;;;;;;;;
2021/10/22 06:53:08;;;;;;;18.20;14.70;;;;;;;22.84;41.97;101022.29;110461;1238;60659;-82
2021/10/22 06:56:13;;;;;;;18.10;14.70;;;;;;;22.84;41.94;101028.96;110481;1236;60127;-82
2021/10/22 06:59:13;;;;;;;;;;;;;;;;;;;;;
2021/10/22 07:02:40;;;;;;;17.00;14.60;;;;;;;22.80;42.09;101028.51;110735;1236;71928;-82
2021/10/22 07:08:59;;;;;;;17.80;13.20;;;;;;;22.78;42.25;101026.34;110194;1241;59922;-80
2021/10/22 07:12:05;;;;;;;16.60;12.60;;;;;;;22.76;42.30;101031.98;110331;1237;73823;-77
2021/10/22 07:14:49;;;;;;;18.20;13.80;;;;;;;22.75;42.51;101030.66;110438;1235;72973;-79
2021/10/22 07:18:00;;;;;;;16.70;13.30;;;;;;;22.74;42.65;101036.83;110621;1235;61286;-81
2021/10/22 07:20:51;;;;;;;15.80;13.40;;;;;;;22.73;42.64;101037.79;111383;1225;59491;-89
2021/10/22 07:24:12;;;;;;;17.30;14.50;;;;;;;22.72;42.93;101038.42;112118;1224;73864;-80
2021/10/22 07:27:01;;;;;;;;;;;;;;;;;;;;;
2021/10/22 07:29:52;;;;;;;17.00;12.60;;;;;;;22.69;42.95;101035.39;111997;1227;60180;-82
2021/10/22 07:33:00;;;;;;;15.50;12.90;;;;;;;22.68;42.96;101034.78;111923;1227;60290;-81
2021/10/22 07:35:47;;;;;;;;;;;;;;;;;;;;;
2021/10/22 07:38:53;;;;;;;14.20;12.20;;;;;;;22.66;43.17;101041.73;111934;1227;73163;-82
2021/10/22 07:41:30;;;;;;;;;;;;;;;;;;;;;
2021/10/22 07:44:11;;;;;;;15.20;12.40;;;;;;;22.64;43.44;101045.70;112761;1220;60186;-82
2021/10/22 07:47:40;;;;;;;16.80;12.50;;;;;;;22.63;43.56;101049.66;112897;1216;73255;-81
2021/10/22 07:50:22;;;;;;;;;;;;;;;;;;;;;
2021/10/22 07:53:11;;;;;;;16.80;14.00;;;;;;;22.60;43.47;101050.40;112992;1216;59775;-82
2021/10/22 07:56:49;;;;;;;;;;;;;;;;;;;;;
2021/10/22 07:59:45;;;;;;;16.20;12.80;;;;;;;22.57;43.53;101057.10;112852;1216;73348;-82
2021/10/22 08:02:45;;;;;;;16.00;13.40;;;;;;;22.55;43.48;101051.49;112889;1218;72759;-82
2021/10/22 08:05:47;;;;;;;16.50;13.60;;;;;;;22.54;43.37;101051.60;112896;1217;59390;-81
2021/10/22 08:08:45;;;;;;;14.50;12.80;;;;;;;22.54;43.41;101054.13;112892;1217;61024;-82
2021/10/22 08:12:01;;;;;;;;;;;;;;;;;;;;;
2021/10/22 08:14:49;;;;;;;;;;;;;;;;;;;;;
2021/10/22 08:17:58;;;;;;;17.40;13.10;;;;;;;22.52;43.59;101057.10;112943;1217;61458;-84
2021/10/22 08:20:59;;;;;;;14.70;13.20;;;;;;;22.52;43.72;101053.35;112826;1219;61523;-81
2021/10/22 08:23:57;;;;;;;16.00;12.40;;;;;;;22.51;43.75;101051.42;112686;1220;72498;-80
2021/10/22 08:26:57;;;;;;;14.30;12.40;;;;;;;22.51;43.81;101045.16;112731;1219;71662;-87
2021/10/22 08:29:57;;;;;;;;;;;;;;;;;;;;;
2021/10/22 08:32:51;;;;;;;;;;;;;;;;;;;;;
2021/10/22 08:36:09;;;;;;;;;;;;;;;;;;;;;
2021/10/22 08:39:07;;;;;;;17.70;13.30;;;;;;;22.49;44.11;101035.10;112367;1223;73893;-81
2021/10/22 08:42:11;;;;;;;14.60;12.10;;;;;;;22.49;44.28;101032.98;112706;1220;61698;-80
2021/10/22 08:45:17;;;;;;;14.30;11.50;;;;;;;22.49;44.10;101035.48;112676;1220;60687;-78
2021/10/22 08:48:04;;;;;;;13.80;11.30;;;;;;;22.48;44.28;101032.27;112583;1221;72611;-82
2021/10/22 08:51:18;;;;;;;13.90;12.30;;;;;;;22.48;44.19;101025.65;112406;1220;73864;-80
2021/10/22 08:53:59;;;;;;;12.80;11.40;;;;;;;22.47;44.23;101024.31;112494;1221;60261;-80
2021/10/22 08:56:58;;;;;;;17.30;11.90;;;;;;;22.47;44.35;101019.09;112572;1221;60976;-78
2021/10/22 08:59:28;;;;;;;13.20;11.80;;;;;;;22.47;44.42;101017.86;112508;1219;73233;-82
2021/10/22 09:02:32;;;;;;;15.50;12.40;;;;;;;22.47;44.42;101016.95;112834;1219;71704;-82
2021/10/22 09:05:44;;;;;;;13.20;10.80;;;;;;;22.47;44.35;101012.14;112776;1219;60710;-80
2021/10/22 09:08:30;;;;;;;13.80;11.60;;;;;;;22.46;44.39;101008.03;112889;1216;59345;-79
2021/10/22 09:12:20;;;;;;;14.20;11.70;;;;;;;22.46;44.42;101005.39;112670;1217;72419;-85
2021/10/22 09:15:19;;;;;;;17.30;11.60;;;;;;;22.45;44.46;101008.88;112798;1220;72780;-80
2021/10/22 09:18:38;;;;;;;13.20;11.30;;;;;;;22.44;44.42;101008.95;111999;1228;60159;-80
2021/10/22 09:22:07;;;;;;;;;;;;;;;;;;;;;
2021/10/22 09:25:43;;;;;;;;;;;;;;;;;;;;;
2021/10/22 09:29:09;;;;;;;;;;;;;;;;;;;;;
2021/10/22 09:32:00;;;;;;;;;;;;;;;;;;;;;
2021/10/22 09:35:19;;;;;;;13.20;10.80;;;;;;;22.41;44.46;101007.71;111060;1233;60330;-88
2021/10/22 09:39:19;;;;;;;;;;;;;;;;;;;;;
2021/10/22 09:42:55;;;;;;;13.20;11.30;;;;;;;22.39;44.81;101004.97;110369;1241;74028;-86
2021/10/22 09:45:47;;;;;;;12.30;10.80;;;;;;;22.38;44.74;100996.97;110079;1244;60022;-78
2021/10/22 09:49:02;;;;;;;13.40;10.80;;;;;;;22.38;44.80;100994.81;109661;1247;59503;-79
2021/10/22 09:52:07;;;;;;;;;;;;;;;;;;;;;
2021/10/22 09:55:30;;;;;;;;;;;;;;;;;;;;;
2021/10/22 09:58:38;;;;;;;12.40;10.10;;;;;;;22.37;44.92;100995.41;110069;1243;59531;-81
2021/10/22 10:01:39;;;;;;;13.00;10.70;;;;;;;22.38;44.73;100988.77;109912;1243;60289;-81
2021/10/22 10:05:12;;;;;;;14.90;11.30;;;;;;;22.37;44.83;100991.33;110474;1238;73972;-78
2021/10/22 10:07:46;;;;;;;11.30;10.10;;;;;;;22.37;44.90;100983.26;110957;1239;72800;-80
2021/10/22 10:10:13;;;;;;;12.60;10.40;;;;;;;22.38;44.80;100982.13;110941;1239;58994;-83
2021/10/22 10:13:02;;;;;;;13.20;11.10;;;;;;;22.38;44.82;100984.27;110138;1241;59752;-80
2021/10/22 10:16:37;;;;;;;;;;;;;;;;;;;;;
2021/10/22 10:19:41;;;;;;;12.50;10.10;;;;;;;22.38;44.88;100978.84;110566;1235;73937;-81
2021/10/22 10:25:49;;;;;;;12.40;10.20;;;;;;;22.38;44.78;100971.86;110956;1232;60241;-86
2021/10/22 10:29:09;;;;;;;;;;;;;;;;;;;;;
2021/10/22 10:32:12;;;;;;;12.90;10.00;;;;;;;22.39;44.84;100968.96;111148;1231;74076;-82
2021/10/22 10:35:19;;;;;;;12.50;9.80;;;;;;;22.38;44.94;100969.19;111421;1228;61248;-80
2021/10/22 10:38:13;;;;;;;13.20;10.00;;;;;;;22.37;44.79;100968.72;111409;1225;61108;-80
2021/10/22 10:41:20;;;;;;;9.90;8.70;;;;;;;22.37;44.73;100967.45;111933;1227;72422;-81
2021/10/22 10:44:52;;;;;;;11.20;9.40;;;;;;;22.38;44.60;100961.50;111574;1228;74532;-80
2021/10/22 10:48:29;;;;;;;;;;;;;;;;;;;;;
2021/10/22 10:51:03;;;;;;;12.20;9.50;;;;;;;22.38;44.68;100950.36;112923;1225;59028;-79
2021/10/22 10:53:41;;;;;;;11.00;8.60;;;;;;;22.39;44.52;100950.46;112582;1225;73489;-79
2021/10/22 10:56:07;;;;;;;13.70;9.90;;;;;;;22.41;44.61;100953.58;112915;1224;73565;-78
2021/10/22 10:59:03;;;;;;;10.70;9.50;;;;;;;22.42;44.65;100955.11;112000;1225;60601;-81
2021/10/22 11:02:00;;;;;;;11.60;9.30;;;;;;;22.42;44.51;100951.50;112294;1222;60390;-83
2021/10/22 11:05:36;;;;;;;12.30;8.80;;;;;;;22.43;44.46;100951.97;112468;1222;72651;-85
2021/10/22 11:08:50;;;;;;;;;;;;;;;;;;;;;
2021/10/22 11:11:41;;;;;;;12.40;9.30;;;;;;;22.42;44.41;100944.67;112159;1224;61425;-80
2021/10/22 11:15:13;;;;;;;;;;;;;;;;;;;;;
2021/10/22 11:18:22;;;;;;;11.30;9.10;;;;;;;22.41;44.42;100938.61;111599;1227;72656;-82
2021/10/22 11:22:01;;;;;;;;;;;;;;;;;;;;;
2021/10/22 11:25:26;;;;;;;;;;;;;;;;;;;;;
2021/10/22 11:28:34;;;;;;;11.90;8.60;;;;;;;22.40;44.22;100939.80;110586;1235;60338;-80
2021/10/22 11:31:41;;;;;;;;;;;;;;;;;;;;;
2021/10/22 11:35:15;;;;;;;10.10;8.20;;;;;;;22.40;44.26;100940.55;110663;1235;72608;-80
2021/10/22 11:38:27;;;;;;;11.00;8.80;;;;;;;22.40;44.29;100938.23;110650;1232;60287;-82
2021/10/22 11:41:26;;;;;;;10.30;8.40;;;;;;;22.39;44.27;100933.73;111171;1232;60211;-80
2021/10/22 11:44:42;;;;;;;14.80;9.10;;;;;;;22.40;44.26;100933.39;110733;1235;73880;-79
2021/10/22 11:47:39;;;;;;;12.30;8.70;;;;;;;22.40;44.12;100924.93;110757;1235;73756;-82
2021/10/22 11:50:49;;;;;;;9.20;8.20;;;;;;;22.39;44.11;100920.68;110457;1238;61550;-79
2021/10/22 11:54:15;;;;;;;;;;;;;;;;;;;;;
2021/10/22 11:57:20;;;;;;;9.90;7.90;;;;;;;22.39;44.34;100908.85;110523;1235;72298;-81
2021/10/22 12:00:29;;;;;;;11.50;8.60;;;;;;;22.39;44.34;100909.38;111088;1232;74029;-80
2021/10/22 12:03:30;;;;;;;;;;;;;;;;;;;;;
2021/10/22 12:06:17;;;;;;;11.80;8.30;;;;;;;22.39;44.22;100900.41;110906;1235;61239;-81
2021/10/22 12:09:36;;;;;;;;;;;;;;;;;;;;;
2021/10/22 12:12:34;;;;;;;9.90;8.20;;;;;;;22.39;44.10;100902.77;111274;1232;74634;-84
2021/10/22 12:15:50;;;;;;;;;;;;;;;;;;;;;
2021/10/22 12:18:43;;;;;;;;;;;;;;;;;;;;;
2021/10/22 12:21:53;;;;;;;11.20;8.00;;;;;;;22.38;44.15;100895.70;111412;1230;72455;-82
2021/10/22 12:25:02;;;;;;;10.30;8.20;;;;;;;22.38;44.16;100894.56;111248;1230;73531;-80
2021/10/22 12:28:14;;;;;;;9.90;8.20;;;;;;;22.38;44.20;100887.64;111471;1228;60326;-86
2021/10/22 12:31:13;;;;;;;9.90;7.50;;;;;;;22.38;44.31;100884.95;111139;1233;60771;-81
2021/10/22 12:34:38;;;;;;;;;;;;;;;;;;;;;
2021/10/22 12:37:55;;;;;;;12.00;8.00;;;;;;;22.37;44.23;100882.14;110143;1241;73895;-84
2021/10/22 12:40:45;;;;;;;9.80;8.10;;;;;;;22.36;44.18;100886.48;110233;1241;60217;-87
2021/10/22 12:43:58;;;;;;;9.40;7.30;;;;;;;22.36;44.20;100886.69;110342;1241;59320;-82
2021/10/22 12:47:21;;;;;;;11.60;8.30;;;;;;;22.36;44.29;100885.77;110219;1241;71543;-83
2021/10/22 12:50:18;;;;;;;;;;;;;;;;;;;;;
2021/10/22 12:53:32;;;;;;;9.90;8.20;;;;;;;22.36;44.39;100889.05;109767;1247;60466;-81
2021/10/22 12:56:50;;;;;;;;;;;;;;;;;;;;;
2021/10/22 12:59:57;;;;;;;9.70;7.80;;;;;;;22.35;44.43;100887.83;109942;1243;72532;-82
2021/10/22 13:02:52;;;;;;;9.00;7.50;;;;;;;22.35;44.43;100883.71;110331;1237;73901;-80
2021/10/22 13:05:59;;;;;;;8.40;6.70;;;;;;;22.35;44.54;100889.79;110518;1238;60288;-79
2021/10/22 13:10:03;;;;;;;10.70;8.10;;;;;;;22.35;44.56;100887.26;110550;1235;60349;-81
2021/10/22 13:12:46;;;;;;;11.10;8.00;;;;;;;22.35;44.51;100888.36;110822;1232;73379;-79
2021/10/22 13:23:10;;;;;;;;;;;;;;;;;;;;;
2021/10/22 13:26:25;;;;;;;9.10;8.00;;;;;;;22.35;44.52;100874.77;110639;1237;72572;-85
2021/10/22 13:29:51;;;;;;;9.70;7.70;;;;;;;22.34;44.50;100874.61;110642;1238;73732;-83
2021/10/22 13:33:04;;;;;;;8.80;7.70;;;;;;;22.33;44.72;100883.60;110772;1238;60396;-85
2021/10/22 13:36:21;;;;;;;9.90;8.00;;;;;;;22.33;44.67;100885.61;110657;1237;60730;-82
2021/10/22 13:39:26;;;;;;;9.20;7.50;;;;;;;22.33;44.80;100887.27;110752;1237;72422;-89
2021/10/22 13:43:13;;;;;;;8.50;7.00;;;;;;;22.33;44.78;100889.05;110278;1241;71523;-82
2021/10/22 13:46:26;;;;;;;;;;;;;;;;;;;;;
2021/10/22 13:50:18;;;;;;;9.40;7.30;;;;;;;22.32;44.75;100886.23;110229;1244;60190;-85
2021/10/22 13:53:52;;;;;;;;;;;;;;;;;;;;;
2021/10/22 13:56:56;;;;;;;;;;;;;;;;;;;;;
2021/10/22 14:00:07;;;;;;;;;;;;;;;;;;;;;
2021/10/22 14:03:09;;;;;;;;;;;;;;;;;;;;;
2021/10/22 14:06:50;;;;;;;;;;;;;;;;;;;;;
2021/10/22 14:10:17;;;;;;;9.50;7.90;;;;;;;22.33;45.07;100882.41;110659;1238;73702;-85
2021/10/22 14:13:45;;;;;;;9.10;7.40;;;;;;;22.33;45.03;100881.52;110817;1235;61131;-85
2021/10/22 14:31:29;;;;;;;;;;;;;;;;;;;;;
2021/10/22 14:38:16;;;;;;;;;;;;;;;;;;;;;
2021/10/22 14:41:38;;;;;;;8.60;7.00;;;;;;;22.32;45.04;100880.85;110933;1236;60271;-85
2021/10/22 14:45:08;;;;;;;9.00;7.90;;;;;;;22.32;45.05;100877.82;110962;1235;60396;-82
2021/10/22 14:55:29;;;;;;;10.00;7.40;;;;;;;22.31;45.11;100880.20;110536;1239;60230;-85
2021/10/22 14:58:35;;;;;;;8.50;7.10;;;;;;;22.31;45.24;100875.91;110984;1234;61162;-82
2021/10/22 15:02:02;;;;;;;;;;;;;;;;;;;;;
2021/10/22 15:05:11;;;;;;;;;;;;;;;;;;;;;
2021/10/22 15:08:37;;;;;;;8.90;7.30;;;;;;;22.32;45.17;100882.33;111656;1231;60297;-80
2021/10/22 15:12:14;;;;;;;8.90;7.20;;;;;;;22.32;45.18;100886.77;111335;1231;61319;-82
2021/10/22 15:15:19;;;;;;;;;;;;;;;;;;;;;
2021/10/22 15:18:26;;;;;;;8.80;7.50;;;;;;;22.32;45.21;100894.83;110694;1238;75143;-80
2021/10/22 15:21:52;;;;;;;8.50;7.60;;;;;;;22.33;45.22;100898.52;110734;1236;60104;-81
2021/10/22 15:25:03;;;;;;;9.50;7.80;;;;;;;22.33;45.19;100902.70;110769;1235;61875;-87
2021/10/22 15:28:02;;;;;;;9.20;7.40;;;;;;;22.33;45.30;100901.73;110997;1235;73636;-86
2021/10/22 15:31:18;;;;;;;9.60;7.50;;;;;;;22.33;45.31;100902.98;110795;1236;74002;-81
2021/10/22 15:34:54;;;;;;;;;;;;;;;;;;;;;
2021/10/22 15:38:06;;;;;;;8.70;7.40;;;;;;;22.33;45.31;100907.54;110228;1243;61366;-79
2021/10/22 15:41:53;;;;;;;8.80;7.30;;;;;;;22.32;45.37;100906.66;110189;1242;73841;-85
2021/10/22 15:44:41;;;;;;;;;;;;;;;;;;;;;
2021/10/22 15:47:56;;;;;;;7.80;7.00;;;;;;;22.32;45.34;100912.20;109879;1248;60775;-82
2021/10/22 15:51:27;;;;;;;8.60;7.30;;;;;;;22.32;45.30;100914.20;110030;1247;60319;-82
2021/10/22 15:54:54;;;;;;;9.80;7.80;;;;;;;22.31;45.59;100918.59;109970;1245;71226;-85
2021/10/22 15:58:10;;;;;;;;;;;;;;;;;;;;;
2021/10/22 16:01:38;;;;;;;8.00;7.10;;;;;;;22.31;45.45;100919.85;109371;1250;61457;-86
2021/10/22 16:04:27;;;;;;;8.40;6.50;;;;;;;22.31;45.44;100923.63;109348;1251;62333;-81
2021/10/22 16:07:52;;;;;;;;;;;;;;;;;;;;;
2021/10/22 16:11:25;;;;;;;;;;;;;;;;;;;;;
2021/10/22 16:14:48;;;;;;;7.90;6.80;;;;;;;22.29;45.44;100933.98;109971;1247;60343;-89
2021/10/22 16:17:51;;;;;;;8.00;6.80;;;;;;;22.29;45.45;100942.57;109963;1245;61675;-83
2021/10/22 16:21:20;;;;;;;8.90;7.10;;;;;;;22.29;45.39;100948.34;110126;1242;71215;-85
2021/10/22 16:24:21;;;;;;;;;;;;;;;;;;;;;
2021/10/22 16:27:56;;;;;;;8.60;7.30;;;;;;;22.29;45.49;100958.00;110176;1244;60348;-85
2021/10/22 16:31:18;;;;;;;8.40;7.00;;;;;;;22.28;45.56;100959.84;110048;1245;60279;-83
2021/10/22 16:38:29;;;;;;;8.10;7.20;;;;;;;22.27;45.51;100963.14;110483;1239;72647;-84
2021/10/22 16:41:44;;;;;;;9.10;7.50;;;;;;;22.27;45.58;100965.27;110307;1242;61351;-86
2021/10/22 16:45:26;;;;;;;;;;;;;;;;;;;;;
2021/10/22 16:49:02;;;;;;;;;;;;;;;;;;;;;
2021/10/22 16:52:21;;;;;;;8.80;7.30;;;;;;;22.25;45.61;100963.06;110476;1240;73835;-82
2021/10/22 16:55:40;;;;;;;;;;;;;;;;;;;;;
2021/10/22 16:58:49;;;;;;;7.80;6.80;;;;;;;22.26;45.49;100964.48;110094;1243;60332;-79
2021/10/22 17:02:07;;;;;;;8.70;7.10;;;;;;;22.25;45.83;100965.24;110088;1244;72580;-87
2021/10/22 17:05:04;;;;;;;;;;;;;;;;;;;;;
2021/10/22 17:08:13;;;;;;;7.80;6.50;;;;;;;22.25;45.75;100970.62;110186;1245;60541;-87
2021/10/22 17:11:09;;;;;;;;;;;;;;;;;;;;;
2021/10/22 17:14:45;;;;;;;;;;;;;;;;;;;;;
2021/10/22 17:17:56;;;;;;;9.10;6.80;;;;;;;22.25;45.86;100969.58;110289;1243;74949;-85
2021/10/22 17:21:20;;;;;;;;;;;;;;;;;;;;;
2021/10/22 17:24:27;;;;;;;14.10;7.10;;;;;;;22.24;45.76;100968.20;110753;1238;60161;-82
2021/10/22 17:27:41;;;;;;;8.30;6.90;;;;;;;22.24;45.78;100969.28;110758;1236;72409;-88
2021/10/22 17:31:13;;;;;;;10.00;7.30;;;;;;;22.24;45.80;100971.61;110459;1241;74108;-89
2021/10/22 17:34:15;;;;;;;7.90;7.00;;;;;;;22.23;45.87;100973.45;110520;1241;60316;-83
2021/10/22 17:40:43;;;;;;;;;;;;;;;;;;;;;
2021/10/22 17:43:59;;;;;;;;;;;;;;;;;;;;;
2021/10/22 17:47:40;;;;;;;;;;;;;;;;;;;;;
2021/10/22 17:50:53;;;;;;;;;;;;;;;;;;;;;
2021/10/22 17:54:27;;;;;;;10.30;7.00;;;;;;;22.22;45.98;100968.52;110363;1240;71320;-88
2021/10/22 17:57:33;;;;;;;8.40;6.90;;;;;;;22.23;45.94;100967.41;109986;1246;74804;-84
2021/10/22 18:00:27;;;;;;;9.20;7.40;;;;;;;22.22;45.98;100963.71;110035;1247;61191;-83
2021/10/22 18:03:57;;;;;;;8.20;6.90;;;;;;;22.22;45.96;100960.80;110499;1240;61981;-80
2021/10/22 18:07:24;;;;;;;8.60;7.00;;;;;;;22.22;46.06;100959.73;110755;1238;75550;-84
2021/10/22 18:10:33;;;;;;;8.70;7.10;;;;;;;22.22;46.11;100954.36;110595;1238;73762;-81
2021/10/22 18:13:40;;;;;;;8.80;7.00;;;;;;;22.22;46.08;100949.39;110616;1238;60328;-81
2021/10/22 18:17:03;;;;;;;;;;;;;;;;;;;;;
2021/10/22 18:20:39;;;;;;;8.70;7.10;;;;;;;22.21;46.03;100952.67;110840;1234;71962;-84
2021/10/22 18:23:55;;;;;;;;;;;;;;;;;;;;;
2021/10/22 18:27:02;;;;;;;9.60;6.80;;;;;;;22.20;46.05;100949.83;111570;1230;60417;-89
2021/10/22 18:30:07;;;;;;;;;;;;;;;;;;;;;
2021/10/22 18:33:22;;;;;;;8.70;7.10;;;;;;;22.21;46.21;100948.39;111073;1233;73955;-87
2021/10/22 18:36:40;;;;;;;;;;;;;;;;;;;;;
2021/10/22 18:39:45;;;;;;;8.20;7.10;;;;;;;22.21;46.28;100953.21;111215;1232;60696;-79
2021/10/22 18:43:13;;;;;;;;;;;;;;;;;;;;;
2021/10/22 18:46:44;;;;;;;9.50;7.30;;;;;;;22.19;46.13;100957.27;110915;1235;75765;-80
2021/10/22 18:52:53;;;;;;;8.80;6.60;;;;;;;22.20;46.13;100958.66;110919;1235;60158;-85
2021/10/22 18:56:11;;;;;;;;;;;;;;;;;;;;;
2021/10/22 19:00:01;;;;;;;8.30;6.70;;;;;;;22.20;46.12;100962.61;110757;1238;72520;-88
2021/10/22 19:03:11;;;;;;;9.10;6.80;;;;;;;22.19;46.14;100960.51;110745;1237;74799;-87
2021/10/22 19:06:55;;;;;;;;;;;;;;;;;;;;;
2021/10/22 19:11:08;;;;;;;7.80;6.30;;;;;;;22.18;46.13;100963.79;110443;1238;60208;-85
2021/10/22 19:13:56;;;;;;;7.90;6.90;;;;;;;22.18;46.10;100966.87;110596;1238;71360;-82
2021/10/22 19:17:23;;;;;;;8.70;6.70;;;;;;;22.18;46.19;100964.52;110595;1239;75345;-85
2021/10/22 19:20:54;;;;;;;8.90;6.90;;;;;;;22.18;46.27;100971.31;110557;1241;61119;-78
2021/10/22 19:24:06;;;;;;;10.00;7.00;;;;;;;22.18;46.24;100969.52;110570;1238;61661;-86
2021/10/22 19:27:41;;;;;;;9.30;6.80;;;;;;;22.18;46.36;100973.30;110028;1244;71396;-90
2021/10/22 19:30:49;;;;;;;;;;;;;;;;;;;;;
2021/10/22 19:34:03;;;;;;;8.10;6.10;;;;;;;22.18;46.37;100971.70;109864;1249;60220;-79
2021/10/22 19:37:00;;;;;;;8.60;6.50;;;;;;;22.18;46.29;100969.72;109886;1248;60461;-78
2021/10/22 19:39:46;;;;;;;8.80;7.00;;;;;;;22.18;46.38;100967.59;109876;1247;72624;-83
2021/10/22 19:43:16;;;;;;;9.20;7.20;;;;;;;22.18;46.36;100971.52;109873;1247;72566;-86
2021/10/22 19:46:46;;;;;;;9.70;6.70;;;;;;;22.17;46.36;100967.28;109336;1251;60264;-83
2021/10/22 19:50:13;;;;;;;;;;;;;;;;;;;;;
2021/10/22 19:53:26;;;;;;;8.10;6.50;;;;;;;22.17;46.40;100969.61;109573;1250;73696;-87